createdAt,value
2017-05-06T00:00:01.519Z,938.4
2017-05-06T00:01:09.771Z,938.4
2017-05-06T00:02:17.700Z,938.4
2017-05-06T00:03:25.784Z,938.4
2017-05-06T00:04:33.873Z,938.4
2017-05-06T00:05:41.963Z,938.4
2017-05-06T00:06:50.168Z,938.4
2017-05-06T00:07:58.134Z,938.4
2017-05-06T00:09:06.343Z,938.4
2017-05-06T00:10:14.309Z,938.4
2017-05-06T00:11:22.395Z,938.4
2017-05-06T00:12:30.701Z,938.4
2017-05-06T00:13:38.571Z,938.3
2017-05-06T00:14:46.658Z,938.4
2017-05-06T00:15:54.745Z,938.4
2017-05-06T00:17:02.834Z,938.3
2017-05-06T00:18:11.070Z,938.3
2017-05-06T00:19:19.108Z,938.3
2017-05-06T00:20:27.095Z,938.3
2017-05-06T00:21:35.185Z,938.2
2017-05-06T00:22:43.269Z,938.2
2017-05-06T00:23:51.477Z,938.2
2017-05-06T00:24:59.508Z,938.1
2017-05-06T00:26:07.530Z,938.1
2017-05-06T00:27:15.618Z,938.1
2017-05-06T00:28:23.705Z,938.1
2017-05-06T00:29:31.982Z,938.1
2017-05-06T00:30:39.880Z,938.1
2017-05-06T00:31:47.968Z,938.0
2017-05-06T00:32:56.054Z,938.0
2017-05-06T00:34:04.141Z,938.0
2017-05-06T00:35:12.327Z,938.0
2017-05-06T00:36:20.359Z,938.0
2017-05-06T00:37:28.404Z,938.0
2017-05-06T00:38:36.490Z,938.0
2017-05-06T00:39:44.578Z,938.1
2017-05-06T00:40:52.785Z,938.1
2017-05-06T00:42:00.751Z,938.0
2017-05-06T00:43:08.837Z,938.0
2017-05-06T00:44:16.925Z,938.0
2017-05-06T00:45:25.013Z,938.0
2017-05-06T00:46:33.351Z,938.0
2017-05-06T00:47:41.188Z,938.0
2017-05-06T00:48:49.282Z,938.0
2017-05-06T00:49:57.360Z,938.0
2017-05-06T00:51:05.446Z,938.0
2017-05-06T00:52:13.668Z,938.0
2017-05-06T00:53:21.645Z,938.0
2017-05-06T00:54:29.710Z,938.0
2017-05-06T00:55:37.797Z,938.1
2017-05-06T00:56:45.941Z,938.1
2017-05-06T00:57:54.099Z,938.1
2017-05-06T00:59:02.057Z,938.1
2017-05-06T01:00:10.145Z,938.1
2017-05-06T01:01:18.230Z,938.1
2017-05-06T01:02:26.320Z,938.1
2017-05-06T01:03:34.599Z,938.0
2017-05-06T01:04:42.492Z,938.0
2017-05-06T01:05:50.579Z,938.0
2017-05-06T01:06:58.668Z,938.0
2017-05-06T01:08:06.753Z,938.0
2017-05-06T01:09:14.963Z,938.0
2017-05-06T01:10:22.996Z,937.9
2017-05-06T01:11:31.021Z,937.9
2017-05-06T01:12:39.162Z,937.9
2017-05-06T01:13:47.218Z,937.8
2017-05-06T01:14:55.402Z,937.8
2017-05-06T01:16:03.372Z,937.8
2017-05-06T01:17:11.454Z,937.8
2017-05-06T01:18:19.539Z,937.8
2017-05-06T01:19:27.625Z,937.8
2017-05-06T01:20:35.805Z,937.8
2017-05-06T01:21:43.798Z,937.8
2017-05-06T01:22:51.892Z,937.7
2017-05-06T01:23:59.979Z,937.7
2017-05-06T01:25:08.069Z,937.8
2017-05-06T01:26:16.349Z,937.7
2017-05-06T01:27:24.317Z,937.7
2017-05-06T01:28:32.382Z,937.8
2017-05-06T01:29:40.411Z,937.7
2017-05-06T01:30:48.498Z,937.7
2017-05-06T01:31:56.709Z,937.7
2017-05-06T01:33:04.671Z,937.7
2017-05-06T01:34:12.758Z,937.7
2017-05-06T01:35:20.844Z,937.7
2017-05-06T01:36:28.932Z,937.8
2017-05-06T01:37:37.241Z,937.8
2017-05-06T01:38:45.109Z,937.8
2017-05-06T01:39:53.189Z,937.7
2017-05-06T01:41:01.276Z,937.7
2017-05-06T01:42:09.363Z,937.7
2017-05-06T01:43:17.643Z,937.7
2017-05-06T01:44:25.678Z,937.7
2017-05-06T01:45:33.624Z,937.7
2017-05-06T01:46:41.709Z,937.6
2017-05-06T01:47:49.796Z,937.6
2017-05-06T01:48:58.007Z,937.6
2017-05-06T01:50:05.973Z,937.6
2017-05-06T01:51:14.061Z,937.5
2017-05-06T01:52:22.146Z,937.5
2017-05-06T01:53:30.234Z,937.5
2017-05-06T01:54:38.530Z,937.5
2017-05-06T01:55:46.407Z,937.4
2017-05-06T01:56:54.491Z,937.4
2017-05-06T01:58:02.578Z,937.4
2017-05-06T01:59:10.664Z,937.3
2017-05-06T02:00:18.806Z,937.3
2017-05-06T02:01:26.837Z,937.3
2017-05-06T02:02:34.925Z,937.3
2017-05-06T02:03:43.011Z,937.3
2017-05-06T02:04:51.097Z,937.3
2017-05-06T02:05:59.307Z,937.3
2017-05-06T02:07:07.270Z,937.3
2017-05-06T02:08:15.502Z,937.3
2017-05-06T02:09:23.440Z,937.2
2017-05-06T02:10:31.532Z,937.2
2017-05-06T02:11:39.737Z,937.2
2017-05-06T02:12:47.704Z,937.2
2017-05-06T02:13:55.790Z,937.2
2017-05-06T02:15:03.873Z,937.1
2017-05-06T02:16:12.015Z,937.1
2017-05-06T02:17:20.168Z,937.1
2017-05-06T02:18:28.133Z,937.1
2017-05-06T02:19:36.220Z,937.1
2017-05-06T02:20:44.307Z,937.1
2017-05-06T02:21:52.397Z,937.1
2017-05-06T02:23:00.536Z,937.0
2017-05-06T02:24:08.564Z,937.0
2017-05-06T02:25:16.824Z,937.0
2017-05-06T02:26:24.748Z,937.0
2017-05-06T02:27:32.830Z,936.9
2017-05-06T02:28:41.038Z,936.9
2017-05-06T02:29:49.004Z,936.9
2017-05-06T02:30:57.099Z,936.9
2017-05-06T02:32:05.284Z,936.8
2017-05-06T02:33:13.263Z,936.8
2017-05-06T02:34:21.470Z,936.8
2017-05-06T02:35:29.435Z,936.7
2017-05-06T02:36:37.522Z,936.7
2017-05-06T02:37:45.608Z,936.7
2017-05-06T02:38:53.695Z,936.8
2017-05-06T02:40:01.901Z,936.7
2017-05-06T02:41:09.867Z,936.7
2017-05-06T02:42:18.119Z,936.7
2017-05-06T02:43:26.068Z,936.7
2017-05-06T02:44:34.125Z,936.7
2017-05-06T02:45:42.266Z,936.7
2017-05-06T02:46:50.296Z,936.7
2017-05-06T02:47:58.503Z,936.7
2017-05-06T02:49:06.544Z,936.7
2017-05-06T02:50:14.555Z,936.7
2017-05-06T02:51:22.698Z,936.7
2017-05-06T02:52:30.726Z,936.7
2017-05-06T02:53:38.822Z,936.6
2017-05-06T02:54:46.899Z,936.6
2017-05-06T02:55:54.984Z,936.6
2017-05-06T02:57:03.196Z,936.6
2017-05-06T02:58:11.159Z,936.5
2017-05-06T02:59:19.244Z,936.5
2017-05-06T03:00:27.328Z,936.5
2017-05-06T03:01:35.414Z,936.5
2017-05-06T03:02:43.563Z,936.5
2017-05-06T03:03:51.722Z,936.5
2017-05-06T03:04:59.678Z,936.5
2017-05-06T03:06:07.766Z,936.5
2017-05-06T03:07:15.854Z,936.5
2017-05-06T03:08:23.994Z,936.4
2017-05-06T03:09:32.029Z,936.5
2017-05-06T03:10:40.116Z,936.4
2017-05-06T03:11:48.203Z,936.4
2017-05-06T03:12:56.290Z,936.4
2017-05-06T03:14:04.430Z,936.4
2017-05-06T03:15:12.463Z,936.3
2017-05-06T03:16:20.691Z,936.3
2017-05-06T03:17:28.633Z,936.2
2017-05-06T03:18:36.717Z,936.2
2017-05-06T03:19:44.930Z,936.2
2017-05-06T03:20:52.896Z,936.2
2017-05-06T03:22:00.982Z,936.1
2017-05-06T03:23:09.109Z,936.1
2017-05-06T03:24:17.164Z,936.1
2017-05-06T03:25:25.308Z,936.1
2017-05-06T03:26:33.330Z,936.1
2017-05-06T03:27:41.418Z,936.1
2017-05-06T03:28:49.503Z,936.1
2017-05-06T03:29:57.588Z,936.0
2017-05-06T03:31:05.796Z,936.1
2017-05-06T03:32:13.762Z,936.1
2017-05-06T03:33:21.855Z,936.1
2017-05-06T03:34:29.933Z,936.1
2017-05-06T03:35:38.137Z,936.2
2017-05-06T03:36:46.160Z,936.2
2017-05-06T03:37:54.190Z,936.3
2017-05-06T03:39:02.275Z,936.2
2017-05-06T03:40:10.404Z,936.2
2017-05-06T03:41:18.448Z,936.2
2017-05-06T03:42:26.654Z,936.2
2017-05-06T03:43:34.620Z,936.2
2017-05-06T03:44:42.798Z,936.2
2017-05-06T03:45:50.795Z,936.2
2017-05-06T03:46:58.877Z,936.2
2017-05-06T03:48:07.019Z,936.3
2017-05-06T03:49:15.049Z,936.3
2017-05-06T03:50:23.257Z,936.3
2017-05-06T03:51:31.342Z,936.3
2017-05-06T03:52:39.307Z,936.3
2017-05-06T03:53:47.457Z,936.2
2017-05-06T03:54:55.477Z,936.2
2017-05-06T03:56:03.569Z,936.2
2017-05-06T03:57:11.690Z,936.2
2017-05-06T03:58:19.743Z,936.2
2017-05-06T03:59:27.948Z,936.2
2017-05-06T04:00:35.917Z,936.3
2017-05-06T04:01:43.998Z,936.3
2017-05-06T04:02:52.083Z,936.3
2017-05-06T04:04:00.167Z,936.4
2017-05-06T04:05:08.311Z,936.4
2017-05-06T04:06:16.341Z,936.4
2017-05-06T04:07:24.679Z,936.4
2017-05-06T04:08:32.513Z,936.5
2017-05-06T04:09:40.603Z,936.5
2017-05-06T04:10:48.808Z,936.5
2017-05-06T04:11:56.775Z,936.6
2017-05-06T04:13:04.860Z,936.7
2017-05-06T04:14:12.991Z,936.7
2017-05-06T04:15:21.030Z,936.8
2017-05-06T04:16:29.173Z,936.7
2017-05-06T04:17:37.205Z,936.8
2017-05-06T04:18:45.290Z,936.8
2017-05-06T04:19:53.377Z,936.7
2017-05-06T04:21:01.461Z,936.7
2017-05-06T04:22:09.600Z,936.7
2017-05-06T04:23:17.759Z,936.7
2017-05-06T04:24:25.802Z,936.6
2017-05-06T04:25:33.810Z,936.5
2017-05-06T04:26:41.896Z,936.5
2017-05-06T04:27:50.102Z,936.5
2017-05-06T04:28:58.068Z,936.5
2017-05-06T04:30:06.157Z,936.4
2017-05-06T04:31:14.303Z,936.4
2017-05-06T04:32:22.326Z,936.3
2017-05-06T04:33:30.467Z,936.3
2017-05-06T04:34:38.496Z,936.3
2017-05-06T04:35:46.583Z,936.3
2017-05-06T04:36:54.669Z,936.3
2017-05-06T04:38:02.754Z,936.2
2017-05-06T04:39:10.961Z,936.3
2017-05-06T04:40:18.980Z,936.3
2017-05-06T04:41:27.206Z,936.3
2017-05-06T04:42:35.101Z,936.3
2017-05-06T04:43:43.184Z,936.3
2017-05-06T04:44:51.393Z,936.4
2017-05-06T04:45:59.357Z,936.4
2017-05-06T04:47:07.444Z,936.4
2017-05-06T04:48:15.652Z,936.4
2017-05-06T04:49:23.613Z,936.5
2017-05-06T04:50:31.756Z,936.5
2017-05-06T04:51:39.785Z,936.5
2017-05-06T04:52:47.872Z,936.5
2017-05-06T04:53:55.978Z,936.4
2017-05-06T04:55:04.163Z,936.3
2017-05-06T04:56:12.252Z,936.4
2017-05-06T04:57:20.325Z,936.4
2017-05-06T04:58:28.301Z,936.4
2017-05-06T04:59:36.386Z,936.4
2017-05-06T05:00:44.473Z,936.4
2017-05-06T05:01:52.612Z,936.4
2017-05-06T05:03:00.641Z,936.4
2017-05-06T05:04:08.727Z,936.4
2017-05-06T05:05:16.813Z,936.4
2017-05-06T05:06:24.982Z,936.4
2017-05-06T05:07:33.108Z,936.4
2017-05-06T05:08:41.074Z,936.4
2017-05-06T05:09:49.153Z,936.5
2017-05-06T05:10:57.403Z,936.5
2017-05-06T05:12:05.326Z,936.4
2017-05-06T05:13:13.532Z,936.4
2017-05-06T05:14:21.496Z,936.3
2017-05-06T05:15:29.584Z,936.3
2017-05-06T05:16:37.670Z,936.4
2017-05-06T05:17:45.755Z,936.4
2017-05-06T05:18:53.960Z,936.4
2017-05-06T05:20:01.923Z,936.5
2017-05-06T05:21:10.016Z,936.6
2017-05-06T05:22:18.300Z,936.6
2017-05-06T05:23:26.191Z,936.7
2017-05-06T05:24:34.394Z,936.8
2017-05-06T05:25:42.359Z,936.8
2017-05-06T05:26:50.565Z,936.8
2017-05-06T05:27:58.867Z,936.8
2017-05-06T05:29:06.614Z,936.8
2017-05-06T05:30:14.820Z,936.7
2017-05-06T05:31:22.785Z,936.6
2017-05-06T05:32:30.931Z,936.6
2017-05-06T05:33:38.958Z,936.7
2017-05-06T05:34:47.212Z,936.7
2017-05-06T05:35:55.184Z,936.7
2017-05-06T05:37:03.215Z,936.8
2017-05-06T05:38:11.299Z,936.8
2017-05-06T05:39:19.568Z,936.8
2017-05-06T05:40:27.470Z,936.8
2017-05-06T05:41:35.676Z,936.8
2017-05-06T05:42:43.775Z,936.8
2017-05-06T05:43:51.727Z,936.8
2017-05-06T05:44:59.816Z,936.7
2017-05-06T05:46:07.902Z,936.8
2017-05-06T05:47:16.048Z,936.7
2017-05-06T05:48:24.074Z,936.8
2017-05-06T05:49:32.386Z,936.8
2017-05-06T05:50:40.274Z,936.8
2017-05-06T05:51:48.472Z,936.9
2017-05-06T05:52:56.537Z,936.9
2017-05-06T05:54:04.503Z,936.9
2017-05-06T05:55:12.585Z,936.9
2017-05-06T05:56:20.673Z,936.9
2017-05-06T05:57:28.756Z,936.9
2017-05-06T05:58:36.899Z,936.8
2017-05-06T05:59:44.930Z,936.8
2017-05-06T06:00:53.014Z,936.8
2017-05-06T06:02:01.254Z,936.9
2017-05-06T06:03:09.185Z,936.9
2017-05-06T06:04:17.400Z,936.9
2017-05-06T06:05:25.368Z,936.9
2017-05-06T06:06:33.575Z,936.8
2017-05-06T06:07:41.538Z,936.7
2017-05-06T06:08:50.029Z,936.6
2017-05-06T06:09:57.833Z,936.6
2017-05-06T06:11:05.794Z,936.5
2017-05-06T06:12:13.928Z,936.5
2017-05-06T06:13:22.001Z,936.5
2017-05-06T06:14:30.235Z,936.4
2017-05-06T06:15:38.193Z,936.5
2017-05-06T06:16:46.894Z,936.5
2017-05-06T06:17:54.309Z,936.6
2017-05-06T06:19:02.576Z,936.6
2017-05-06T06:20:10.480Z,936.7
2017-05-06T06:21:18.686Z,936.7
2017-05-06T06:22:26.649Z,936.7
2017-05-06T06:23:34.734Z,936.8
2017-05-06T06:24:43.494Z,936.8
2017-05-06T06:25:51.021Z,936.8
2017-05-06T06:26:59.047Z,936.8
2017-05-06T06:28:07.077Z,936.9
2017-05-06T06:29:15.162Z,936.8
2017-05-06T06:30:23.372Z,936.9
2017-05-06T06:31:31.578Z,936.8
2017-05-06T06:32:39.481Z,936.9
2017-05-06T06:33:47.510Z,936.9
2017-05-06T06:34:55.989Z,936.8
2017-05-06T06:36:03.761Z,936.7
2017-05-06T06:37:11.769Z,936.7
2017-05-06T06:38:19.973Z,936.6
2017-05-06T06:39:27.940Z,936.6
2017-05-06T06:40:36.025Z,936.6
2017-05-06T06:41:44.235Z,936.6
2017-05-06T06:42:52.344Z,936.6
2017-05-06T06:44:00.339Z,936.5
2017-05-06T06:45:08.366Z,936.5
2017-05-06T06:46:16.571Z,936.6
2017-05-06T06:47:24.797Z,936.6
2017-05-06T06:48:32.665Z,936.7
2017-05-06T06:49:40.766Z,936.7
2017-05-06T06:50:48.795Z,936.7
2017-05-06T06:51:56.879Z,936.7
2017-05-06T06:53:04.963Z,936.7
2017-05-06T06:54:13.048Z,936.7
2017-05-06T06:55:21.257Z,936.7
2017-05-06T06:56:29.221Z,936.7
2017-05-06T06:57:37.306Z,936.7
2017-05-06T06:58:45.543Z,936.7
2017-05-06T06:59:53.650Z,936.8
2017-05-06T07:01:01.683Z,936.8
2017-05-06T07:02:09.705Z,936.8
2017-05-06T07:03:17.735Z,936.7
2017-05-06T07:04:25.819Z,936.8
2017-05-06T07:05:33.983Z,936.8
2017-05-06T07:06:42.112Z,936.8
2017-05-06T07:07:50.077Z,936.7
2017-05-06T07:08:58.468Z,936.7
2017-05-06T07:10:06.247Z,936.7
2017-05-06T07:11:14.334Z,936.7
2017-05-06T07:12:22.540Z,936.7
2017-05-06T07:13:30.503Z,936.7
2017-05-06T07:14:38.589Z,936.7
2017-05-06T07:15:46.779Z,936.7
2017-05-06T07:16:54.861Z,936.7
2017-05-06T07:18:02.973Z,936.7
2017-05-06T07:19:10.938Z,936.7
2017-05-06T07:20:19.023Z,936.7
2017-05-06T07:21:27.489Z,936.7
2017-05-06T07:22:35.215Z,936.7
2017-05-06T07:23:43.337Z,936.7
2017-05-06T07:24:51.365Z,936.7
2017-05-06T07:25:59.453Z,936.7
2017-05-06T07:27:07.538Z,936.6
2017-05-06T07:28:15.655Z,936.7
2017-05-06T07:29:23.827Z,936.7
2017-05-06T07:30:31.792Z,936.7
2017-05-06T07:31:39.878Z,936.6
2017-05-06T07:32:47.970Z,936.5
2017-05-06T07:33:56.110Z,936.6
2017-05-06T07:35:04.261Z,936.6
2017-05-06T07:36:12.225Z,936.5
2017-05-06T07:37:20.312Z,936.5
2017-05-06T07:38:28.396Z,936.5
2017-05-06T07:39:36.619Z,936.5
2017-05-06T07:40:44.629Z,936.5
2017-05-06T07:41:52.653Z,936.5
2017-05-06T07:43:00.737Z,936.5
2017-05-06T07:44:08.832Z,936.5
2017-05-06T07:45:16.919Z,936.5
2017-05-06T07:46:25.153Z,936.5
2017-05-06T07:47:33.089Z,936.5
2017-05-06T07:48:41.173Z,936.4
2017-05-06T07:49:49.384Z,936.5
2017-05-06T07:50:57.346Z,936.5
2017-05-06T07:52:05.486Z,936.4
2017-05-06T07:53:13.521Z,936.4
2017-05-06T07:54:21.604Z,936.5
2017-05-06T07:55:29.688Z,936.4
2017-05-06T07:56:37.805Z,936.5
2017-05-06T07:57:45.977Z,936.5
2017-05-06T07:58:53.941Z,936.4
2017-05-06T08:00:02.027Z,936.5
2017-05-06T08:01:10.118Z,936.4
2017-05-06T08:02:18.230Z,936.4
2017-05-06T08:03:26.457Z,936.5
2017-05-06T08:04:34.378Z,936.5
2017-05-06T08:05:42.518Z,936.4
2017-05-06T08:06:50.546Z,936.4
2017-05-06T08:07:58.727Z,936.4
2017-05-06T08:09:06.775Z,936.4
2017-05-06T08:10:14.802Z,936.4
2017-05-06T08:11:22.891Z,936.4
2017-05-06T08:12:31.026Z,936.4
2017-05-06T08:13:39.309Z,936.4
2017-05-06T08:14:47.150Z,936.3
2017-05-06T08:15:55.233Z,936.2
2017-05-06T08:17:03.593Z,936.2
2017-05-06T08:18:11.409Z,936.1
2017-05-06T08:19:19.653Z,936.0
2017-05-06T08:20:27.653Z,936.0
2017-05-06T08:21:35.734Z,935.9
2017-05-06T08:22:43.752Z,936.0
2017-05-06T08:23:51.839Z,935.9
2017-05-06T08:25:00.044Z,936.0
2017-05-06T08:26:08.032Z,936.0
2017-05-06T08:27:16.099Z,936.0
2017-05-06T08:28:24.184Z,936.0
2017-05-06T08:29:32.271Z,936.0
2017-05-06T08:30:40.477Z,936.1
2017-05-06T08:31:48.441Z,936.0
2017-05-06T08:32:57.073Z,936.0
2017-05-06T08:34:05.319Z,936.0
2017-05-06T08:35:12.698Z,936.0
2017-05-06T08:36:26.408Z,936.0
2017-05-06T08:37:29.058Z,936.0
2017-05-06T08:38:36.957Z,936.0
2017-05-06T08:39:45.042Z,935.9
2017-05-06T08:40:53.128Z,935.9
2017-05-06T08:42:01.742Z,935.9
2017-05-06T08:43:09.304Z,935.9
2017-05-06T08:44:17.384Z,935.9
2017-05-06T08:45:25.469Z,935.8
2017-05-06T08:46:33.555Z,935.8
2017-05-06T08:47:41.697Z,935.8
2017-05-06T08:48:49.726Z,935.7
2017-05-06T08:49:57.813Z,935.7
2017-05-06T08:51:06.575Z,935.6
2017-05-06T08:52:13.982Z,935.5
2017-05-06T08:53:22.366Z,935.4
2017-05-06T08:54:30.152Z,935.4
2017-05-06T08:55:38.238Z,935.4
2017-05-06T08:56:46.323Z,935.3
2017-05-06T08:57:54.418Z,935.3
2017-05-06T08:59:02.551Z,935.4
2017-05-06T09:00:10.724Z,935.4
2017-05-06T09:01:20.276Z,935.5
2017-05-06T09:02:26.753Z,935.4
2017-05-06T09:03:35.336Z,935.4
2017-05-06T09:04:43.053Z,935.4
2017-05-06T09:05:51.057Z,935.4
2017-05-06T09:06:59.145Z,935.4
2017-05-06T09:08:07.186Z,935.3
2017-05-06T09:09:15.780Z,935.4
2017-05-06T09:10:23.483Z,935.4
2017-05-06T09:11:31.441Z,935.4
2017-05-06T09:12:39.932Z,935.4
2017-05-06T09:13:47.867Z,935.4
2017-05-06T09:14:55.709Z,935.4
2017-05-06T09:16:03.917Z,935.4
2017-05-06T09:17:11.972Z,935.4
2017-05-06T09:18:19.965Z,935.4
2017-05-06T09:19:28.052Z,935.3
2017-05-06T09:20:36.149Z,935.3
2017-05-06T09:21:44.341Z,935.2
2017-05-06T09:22:52.359Z,935.3
2017-05-06T09:24:00.465Z,935.3
2017-05-06T09:25:08.537Z,935.2
2017-05-06T09:26:16.567Z,935.2
2017-05-06T09:27:24.775Z,935.2
2017-05-06T09:28:32.739Z,935.1
2017-05-06T09:29:40.824Z,935.2
2017-05-06T09:30:48.911Z,935.1
2017-05-06T09:31:56.997Z,935.1
2017-05-06T09:33:05.203Z,935.1
2017-05-06T09:34:13.358Z,935.1
2017-05-06T09:35:21.254Z,935.1
2017-05-06T09:36:29.338Z,935.1
2017-05-06T09:37:37.444Z,935.1
2017-05-06T09:38:45.564Z,935.0
2017-05-06T09:39:53.613Z,935.0
2017-05-06T09:41:01.819Z,935.0
2017-05-06T09:42:09.770Z,935.0
2017-05-06T09:43:17.854Z,935.0
2017-05-06T09:44:25.997Z,935.0
2017-05-06T09:45:34.024Z,935.0
2017-05-06T09:46:42.287Z,935.0
2017-05-06T09:47:50.218Z,934.9
2017-05-06T09:48:58.286Z,934.9
2017-05-06T09:50:06.488Z,934.9
2017-05-06T09:51:14.453Z,934.9
2017-05-06T09:52:22.537Z,934.8
2017-05-06T09:53:30.624Z,934.8
2017-05-06T09:54:38.708Z,934.8
2017-05-06T09:55:46.864Z,934.9
2017-05-06T09:56:55.121Z,934.9
2017-05-06T09:58:03.199Z,935.0
2017-05-06T09:59:11.064Z,935.0
2017-05-06T10:00:19.151Z,935.0
2017-05-06T10:01:27.291Z,934.9
2017-05-06T10:02:35.319Z,934.9
2017-05-06T10:03:43.482Z,934.9
2017-05-06T10:04:51.491Z,934.9
2017-05-06T10:05:59.580Z,934.9
2017-05-06T10:07:07.783Z,934.9
2017-05-06T10:08:15.752Z,934.9
2017-05-06T10:09:23.834Z,934.9
2017-05-06T10:10:31.927Z,934.9
2017-05-06T10:11:40.002Z,934.9
2017-05-06T10:12:48.146Z,934.9
2017-05-06T10:13:56.327Z,934.8
2017-05-06T10:15:04.429Z,934.8
2017-05-06T10:16:12.345Z,934.8
2017-05-06T10:17:20.431Z,934.8
2017-05-06T10:18:28.635Z,934.8
2017-05-06T10:19:36.605Z,934.8
2017-05-06T10:20:44.686Z,934.8
2017-05-06T10:21:52.774Z,934.8
2017-05-06T10:23:00.858Z,934.8
2017-05-06T10:24:09.067Z,934.8
2017-05-06T10:25:17.029Z,934.8
2017-05-06T10:26:25.115Z,934.8
2017-05-06T10:27:33.200Z,934.8
2017-05-06T10:28:41.406Z,934.8
2017-05-06T10:29:49.429Z,934.9
2017-05-06T10:30:57.617Z,934.9
2017-05-06T10:32:05.707Z,934.9
2017-05-06T10:33:13.627Z,934.9
2017-05-06T10:34:21.713Z,935.0
2017-05-06T10:35:29.855Z,935.0
2017-05-06T10:36:37.885Z,935.0
2017-05-06T10:37:46.051Z,935.0
2017-05-06T10:38:54.055Z,934.9
2017-05-06T10:40:02.138Z,934.9
2017-05-06T10:41:10.347Z,934.8
2017-05-06T10:42:18.310Z,934.7
2017-05-06T10:43:26.395Z,934.7
2017-05-06T10:44:34.602Z,934.6
2017-05-06T10:45:42.567Z,934.6
2017-05-06T10:46:50.709Z,934.6
2017-05-06T10:47:58.812Z,934.6
2017-05-06T10:49:07.000Z,934.5
2017-05-06T10:50:14.910Z,934.5
2017-05-06T10:51:22.997Z,934.5
2017-05-06T10:52:31.214Z,934.5
2017-05-06T10:53:39.172Z,934.5
2017-05-06T10:54:47.336Z,934.5
2017-05-06T10:55:55.373Z,934.5
2017-05-06T10:57:03.428Z,934.5
2017-05-06T10:58:11.638Z,934.5
2017-05-06T10:59:19.605Z,934.5
2017-05-06T11:00:27.741Z,934.5
2017-05-06T11:01:35.770Z,934.5
2017-05-06T11:02:43.855Z,934.6
2017-05-06T11:03:52.062Z,934.5
2017-05-06T11:05:00.214Z,934.6
2017-05-06T11:06:08.304Z,934.5
2017-05-06T11:07:16.199Z,934.5
2017-05-06T11:08:24.283Z,934.5
2017-05-06T11:09:32.488Z,934.5
2017-05-06T11:10:40.452Z,934.4
2017-05-06T11:11:48.645Z,934.4
2017-05-06T11:12:56.624Z,934.4
2017-05-06T11:14:04.710Z,934.5
2017-05-06T11:15:12.917Z,934.4
2017-05-06T11:16:20.938Z,934.4
2017-05-06T11:17:28.988Z,934.4
2017-05-06T11:18:37.078Z,934.4
2017-05-06T11:19:45.148Z,934.3
2017-05-06T11:20:53.285Z,934.2
2017-05-06T11:22:01.314Z,934.2
2017-05-06T11:23:09.402Z,934.2
2017-05-06T11:24:17.490Z,934.2
2017-05-06T11:25:25.574Z,934.2
2017-05-06T11:26:33.721Z,934.1
2017-05-06T11:27:41.746Z,934.1
2017-05-06T11:28:49.835Z,934.1
2017-05-06T11:29:57.915Z,934.1
2017-05-06T11:31:06.004Z,934.0
2017-05-06T11:32:14.145Z,934.0
2017-05-06T11:33:22.173Z,934.0
2017-05-06T11:34:30.304Z,933.9
2017-05-06T11:35:38.407Z,933.9
2017-05-06T11:36:46.431Z,933.9
2017-05-06T11:37:54.640Z,933.8
2017-05-06T11:39:02.602Z,933.8
2017-05-06T11:40:10.690Z,933.8
2017-05-06T11:41:18.775Z,933.8
2017-05-06T11:42:26.859Z,933.8
2017-05-06T11:43:35.004Z,933.7
2017-05-06T11:44:43.033Z,933.7
2017-05-06T11:45:51.289Z,933.7
2017-05-06T11:46:59.207Z,933.7
2017-05-06T11:48:07.422Z,933.7
2017-05-06T11:49:15.434Z,933.7
2017-05-06T11:50:23.463Z,933.7
2017-05-06T11:51:31.638Z,933.7
2017-05-06T11:52:39.745Z,933.7
2017-05-06T11:53:47.721Z,933.7
2017-05-06T11:54:55.866Z,933.7
2017-05-06T11:56:03.894Z,933.6
2017-05-06T11:57:11.975Z,933.7
2017-05-06T11:58:20.064Z,933.7
2017-05-06T11:59:28.150Z,933.7
2017-05-06T12:00:36.294Z,933.7
2017-05-06T12:01:44.324Z,933.7
2017-05-06T12:02:52.602Z,933.7
2017-05-06T12:04:00.556Z,933.6
2017-05-06T12:05:08.590Z,933.6
2017-05-06T12:06:16.790Z,933.6
2017-05-06T12:07:24.754Z,933.6
2017-05-06T12:08:32.977Z,933.6
2017-05-06T12:09:40.970Z,933.6
2017-05-06T12:10:49.015Z,933.6
2017-05-06T12:11:57.164Z,933.6
2017-05-06T12:13:05.200Z,933.6
2017-05-06T12:14:13.301Z,933.6
2017-05-06T12:15:21.401Z,933.6
2017-05-06T12:16:29.471Z,933.6
2017-05-06T12:17:37.729Z,933.6
2017-05-06T12:18:45.644Z,933.6
2017-05-06T12:19:53.782Z,933.6
2017-05-06T12:21:01.812Z,933.6
2017-05-06T12:22:09.900Z,933.6
2017-05-06T12:23:18.107Z,933.6
2017-05-06T12:24:26.072Z,933.6
2017-05-06T12:25:34.315Z,933.6
2017-05-06T12:26:42.315Z,933.6
2017-05-06T12:27:50.339Z,933.6
2017-05-06T12:28:58.470Z,933.5
2017-05-06T12:30:06.502Z,933.5
2017-05-06T12:31:14.587Z,933.5
2017-05-06T12:32:22.675Z,933.6
2017-05-06T12:33:30.757Z,933.6
2017-05-06T12:34:38.967Z,933.6
2017-05-06T12:35:46.986Z,933.6
2017-05-06T12:36:55.018Z,933.5
2017-05-06T12:38:03.103Z,933.5
2017-05-06T12:39:11.189Z,933.6
2017-05-06T12:40:22.199Z,933.5
2017-05-06T12:41:27.361Z,933.5
2017-05-06T12:42:35.642Z,933.5
2017-05-06T12:43:43.631Z,933.5
2017-05-06T12:44:51.627Z,933.5
2017-05-06T12:45:59.767Z,933.5
2017-05-06T12:47:07.799Z,933.5
2017-05-06T12:48:15.882Z,933.5
2017-05-06T12:49:24.036Z,933.4
2017-05-06T12:50:32.054Z,933.4
2017-05-06T12:51:40.196Z,933.4
2017-05-06T12:52:48.230Z,933.4
2017-05-06T12:53:56.314Z,933.4
2017-05-06T12:55:04.400Z,933.4
2017-05-06T12:56:12.485Z,933.4
2017-05-06T12:57:20.693Z,933.4
2017-05-06T12:58:28.656Z,933.4
2017-05-06T12:59:36.813Z,933.4
2017-05-06T13:00:45.014Z,933.4
2017-05-06T13:01:52.915Z,933.4
2017-05-06T13:03:01.121Z,933.4
2017-05-06T13:04:09.086Z,933.4
2017-05-06T13:05:17.173Z,933.5
2017-05-06T13:06:25.324Z,933.4
2017-05-06T13:07:33.472Z,933.4
2017-05-06T13:08:41.486Z,933.4
2017-05-06T13:09:49.516Z,933.4
2017-05-06T13:10:57.603Z,933.4
2017-05-06T13:12:05.690Z,933.5
2017-05-06T13:13:13.776Z,933.5
2017-05-06T13:14:21.984Z,933.5
2017-05-06T13:15:29.950Z,933.5
2017-05-06T13:16:38.225Z,933.5
2017-05-06T13:17:46.125Z,933.5
2017-05-06T13:18:54.205Z,933.5
2017-05-06T13:20:02.348Z,933.6
2017-05-06T13:21:10.380Z,933.5
2017-05-06T13:22:18.469Z,933.5
2017-05-06T13:23:26.736Z,933.5
2017-05-06T13:24:34.639Z,933.5
2017-05-06T13:25:42.786Z,933.5
2017-05-06T13:26:50.835Z,933.5
2017-05-06T13:27:58.904Z,933.5
2017-05-06T13:29:07.051Z,933.5
2017-05-06T13:30:15.093Z,933.5
2017-05-06T13:31:23.276Z,933.5
2017-05-06T13:32:31.243Z,933.6
2017-05-06T13:33:39.354Z,933.6
2017-05-06T13:34:47.473Z,933.6
2017-05-06T13:35:55.502Z,933.6
2017-05-06T13:37:03.713Z,933.6
2017-05-06T13:38:11.674Z,933.6
2017-05-06T13:39:19.816Z,933.5
2017-05-06T13:40:27.987Z,933.6
2017-05-06T13:41:35.936Z,933.6
2017-05-06T13:42:44.078Z,933.6
2017-05-06T13:43:52.134Z,933.6
2017-05-06T13:45:00.223Z,933.6
2017-05-06T13:46:08.350Z,933.6
2017-05-06T13:47:16.434Z,933.6
2017-05-06T13:48:24.453Z,933.7
2017-05-06T13:49:32.540Z,933.7
2017-05-06T13:50:40.633Z,933.7
2017-05-06T13:51:48.767Z,933.8
2017-05-06T13:52:56.928Z,933.8
2017-05-06T13:54:04.887Z,933.8
2017-05-06T13:55:13.095Z,933.7
2017-05-06T13:56:21.060Z,933.8
2017-05-06T13:57:29.279Z,933.7
2017-05-06T13:58:37.353Z,933.8
2017-05-06T13:59:45.317Z,933.8
2017-05-06T14:00:53.405Z,933.8
2017-05-06T14:02:01.493Z,933.8
2017-05-06T14:03:09.602Z,933.9
2017-05-06T14:04:17.788Z,933.9
2017-05-06T14:05:25.754Z,933.9
2017-05-06T14:06:33.841Z,933.8
2017-05-06T14:07:41.926Z,933.9
2017-05-06T14:08:50.017Z,933.9
2017-05-06T14:09:58.220Z,933.9
2017-05-06T14:11:06.309Z,934.0
2017-05-06T14:12:14.274Z,933.9
2017-05-06T14:13:22.361Z,934.0
2017-05-06T14:14:30.532Z,934.0
2017-05-06T14:15:38.592Z,934.0
2017-05-06T14:16:46.621Z,934.0
2017-05-06T14:17:54.707Z,934.1
2017-05-06T14:19:02.795Z,934.1
2017-05-06T14:20:10.881Z,934.1
2017-05-06T14:21:19.091Z,934.2
2017-05-06T14:22:27.286Z,934.2
2017-05-06T14:23:35.660Z,934.2
2017-05-06T14:24:43.331Z,934.2
2017-05-06T14:25:51.350Z,934.2
2017-05-06T14:26:59.529Z,934.2
2017-05-06T14:28:07.504Z,934.2
2017-05-06T14:29:15.587Z,934.2
2017-05-06T14:30:23.677Z,934.2
2017-05-06T14:31:31.764Z,934.2
2017-05-06T14:32:39.973Z,934.3
2017-05-06T14:33:47.937Z,934.3
2017-05-06T14:34:56.023Z,934.3
2017-05-06T14:36:04.282Z,934.3